Time;durP1;ratioP1;P1;durP2;ratioP2;P2;SDS_P1;SDS_P2;PMS_P1;PMS_P2;Temp;Humidity;BMP_temperature;BMP_pressure;BME280_temperature;BME280_humidity;BME280_pressure;Samples;Min_cycle;Max_cycle;Signal;HPM_P1;HPM_P2
2022/01/02 00:00:19;;;;;;;1999.90;999.90;;;11.70;99.90;;;;;;4971911;28;20398;-72
2022/01/02 00:02:57;;;;;;;1999.90;999.90;;;11.70;99.90;;;;;;4971704;28;20420;-72
2022/01/02 00:05:23;;;;;;;1999.90;999.90;;;11.80;99.90;;;;;;4971601;28;20898;-72
2022/01/02 00:08:02;;;;;;;1999.90;999.90;;;11.80;99.90;;;;;;4971673;28;20417;-72
2022/01/02 00:10:32;;;;;;;1999.90;999.90;;;11.90;99.90;;;;;;4971727;28;20893;-72
2022/01/02 00:12:59;;;;;;;1999.90;999.90;;;11.80;99.90;;;;;;4971598;28;20407;-73
2022/01/02 00:15:26;;;;;;;1999.90;999.90;;;11.70;99.90;;;;;;4971365;28;20451;-72
2022/01/02 00:17:55;;;;;;;1999.90;999.90;;;11.70;99.90;;;;;;4971570;28;20943;-72
2022/01/02 00:20:31;;;;;;;1999.90;999.90;;;11.80;99.90;;;;;;4971547;28;20444;-72
2022/01/02 00:23:00;;;;;;;1999.90;999.90;;;11.80;99.90;;;;;;4971505;28;20402;-72
2022/01/02 00:25:31;;;;;;;1999.90;999.90;;;11.70;99.90;;;;;;4971284;28;20408;-72
2022/01/02 00:27:59;;;;;;;1999.90;999.90;;;11.60;99.90;;;;;;4971489;28;20775;-72
2022/01/02 00:30:25;;;;;;;1999.90;999.90;;;11.60;99.90;;;;;;4971285;28;20885;-72
2022/01/02 00:32:51;;;;;;;1999.90;999.90;;;11.60;99.90;;;;;;4971455;28;20447;-72
2022/01/02 00:35:17;;;;;;;1999.90;999.90;;;11.60;99.90;;;;;;4970952;28;20440;-72
2022/01/02 00:37:42;;;;;;;1999.90;999.90;;;11.60;99.90;;;;;;4971295;28;20973;-72
2022/01/02 00:40:09;;;;;;;1999.90;999.90;;;11.60;99.90;;;;;;4971247;28;20543;-72
2022/01/02 00:42:39;;;;;;;1999.90;999.90;;;11.60;99.90;;;;;;4971251;28;20548;-72
2022/01/02 00:45:14;;;;;;;1999.90;999.90;;;11.60;99.90;;;;;;4970646;28;20453;-72
2022/01/02 00:47:51;;;;;;;1999.90;999.90;;;11.60;99.90;;;;;;4971245;28;20404;-72
2022/01/02 00:50:22;;;;;;;1999.90;999.90;;;11.60;99.90;;;;;;4970620;28;20412;-72
2022/01/02 00:52:49;;;;;;;1999.90;999.90;;;11.60;99.90;;;;;;4971103;28;20456;-72
2022/01/02 00:55:20;;;;;;;1999.90;999.90;;;11.70;99.90;;;;;;4970695;28;20453;-72
2022/01/02 00:57:57;;;;;;;1999.90;999.90;;;11.70;99.90;;;;;;4970989;28;20408;-72
2022/01/02 01:00:24;;;;;;;1999.90;999.90;;;11.80;99.90;;;;;;4970939;28;20409;-72
2022/01/02 01:02:55;;;;;;;1999.90;999.90;;;11.80;99.90;;;;;;4970985;28;20449;-72
2022/01/02 01:05:29;;;;;;;1999.90;999.90;;;11.80;99.90;;;;;;4970682;28;20451;-72
2022/01/02 01:07:58;;;;;;;1999.90;999.90;;;11.80;99.90;;;;;;4970842;28;20440;-72
2022/01/02 01:10:27;;;;;;;1999.90;999.90;;;11.80;99.90;;;;;;4970793;28;20780;-72
2022/01/02 01:12:54;;;;;;;1999.90;999.90;;;11.80;99.90;;;;;;4970835;28;20434;-72
2022/01/02 01:15:22;;;;;;;1999.90;999.90;;;11.80;99.90;;;;;;4970451;28;20413;-72
2022/01/02 01:17:49;;;;;;;1999.90;999.90;;;11.80;99.90;;;;;;4970700;28;20500;-72
2022/01/02 01:20:15;;;;;;;1999.90;999.90;;;11.70;99.90;;;;;;4970697;28;20565;-73
2022/01/02 01:22:41;;;;;;;1999.90;999.90;;;11.70;99.90;;;;;;4970596;28;20420;-72
2022/01/02 01:25:13;;;;;;;1999.90;999.90;;;11.80;99.90;;;;;;4970249;28;20926;-72
2022/01/02 01:27:39;;;;;;;1999.90;999.90;;;11.80;99.90;;;;;;4970660;28;20496;-72
2022/01/02 01:30:06;;;;;;;1999.90;999.90;;;11.80;99.90;;;;;;4970538;28;20406;-72
2022/01/02 01:32:32;;;;;;;1999.90;999.90;;;11.90;99.90;;;;;;4970524;28;20476;-72
2022/01/02 01:34:57;;;;;;;1999.90;999.90;;;11.90;99.90;;;;;;4970177;28;20936;-72
2022/01/02 01:37:23;;;;;;;1999.90;999.90;;;11.90;99.90;;;;;;4970388;28;20185;-72
2022/01/02 01:39:48;;;;;;;1999.90;999.90;;;11.90;99.90;;;;;;4970522;28;20276;-72
2022/01/02 01:42:14;;;;;;;1999.90;999.90;;;11.90;99.90;;;;;;4970389;28;20268;-72
2022/01/02 01:45:02;;;;;;;1999.90;999.90;;;11.90;99.90;;;;;;4969959;28;20217;-72
2022/01/02 01:47:26;;;;;;;1999.90;999.90;;;12.00;99.90;;;;;;4970281;28;20739;-72
2022/01/02 01:49:51;;;;;;;1999.90;999.90;;;12.10;99.90;;;;;;4970331;28;20417;-72
2022/01/02 01:52:17;;;;;;;1999.90;999.90;;;12.30;99.90;;;;;;4970182;28;21004;-72
2022/01/02 01:54:43;;;;;;;1999.90;999.90;;;12.50;99.90;;;;;;4969816;28;20556;-72
2022/01/02 01:57:08;;;;;;;1999.90;999.90;;;12.50;99.90;;;;;;4970217;28;20222;-72
2022/01/02 01:59:34;;;;;;;1999.90;999.90;;;12.60;99.90;;;;;;4970156;28;20594;-73
2022/01/02 02:02:00;;;;;;;1999.90;999.90;;;12.60;99.90;;;;;;4971691;28;20601;-72
2022/01/02 02:04:28;;;;;;;1999.90;999.90;;;12.70;99.90;;;;;;4973349;28;20237;-72
2022/01/02 02:06:55;;;;;;;1999.90;999.90;;;12.70;99.90;;;;;;4973580;28;20417;-73
2022/01/02 02:09:24;;;;;;;1999.90;999.90;;;12.80;99.90;;;;;;4973548;28;20414;-72
2022/01/02 02:11:50;;;;;;;1999.90;999.90;;;12.90;99.90;;;;;;4973474;28;20562;-72
2022/01/02 02:14:16;;;;;;;1999.90;999.90;;;12.90;99.90;;;;;;4973088;28;20464;-72
2022/01/02 02:16:42;;;;;;;1999.90;999.90;;;13.00;99.90;;;;;;4973440;28;20173;-72
2022/01/02 02:19:07;;;;;;;1999.90;999.90;;;13.10;99.90;;;;;;4973365;28;20505;-72
2022/01/02 02:21:37;;;;;;;1999.90;999.90;;;13.20;99.90;;;;;;4973252;28;20175;-73
2022/01/02 02:24:07;;;;;;;1999.90;999.90;;;13.20;99.90;;;;;;4972942;28;20214;-73
2022/01/02 02:26:33;;;;;;;1999.90;999.90;;;13.20;99.90;;;;;;4973292;28;20497;-72
2022/01/02 02:29:00;;;;;;;1999.90;999.90;;;13.20;99.90;;;;;;4973164;28;20467;-73
2022/01/02 02:31:26;;;;;;;1999.90;999.90;;;13.30;99.90;;;;;;4973107;28;20466;-72
2022/01/02 02:33:51;;;;;;;1999.90;999.90;;;13.30;99.90;;;;;;4973018;28;20940;-72
2022/01/02 02:36:17;;;;;;;1999.90;999.90;;;13.40;99.90;;;;;;4972858;28;20184;-72
2022/01/02 02:38:43;;;;;;;1999.90;999.90;;;13.50;99.90;;;;;;4973047;28;20630;-72
2022/01/02 02:41:08;;;;;;;1999.90;999.90;;;13.60;99.90;;;;;;4973071;28;20248;-72
2022/01/02 02:43:45;;;;;;;1999.90;999.90;;;13.70;99.90;;;;;;4972821;28;20271;-72
2022/01/02 02:49:02;;;;;;;1999.90;999.90;;;14.00;99.90;;;;;;4973097;28;20408;-72
2022/01/02 02:51:44;;;;;;;1999.90;999.90;;;14.10;99.90;;;;;;4972867;28;20492;-73
2022/01/02 02:54:15;;;;;;;1999.90;999.90;;;13.90;99.90;;;;;;4972414;28;20450;-72
2022/01/02 02:59:19;;;;;;;1999.90;999.90;;;13.60;99.90;;;;;;4972912;28;20409;-72
2022/01/02 03:01:45;;;;;;;1999.90;999.90;;;13.30;99.90;;;;;;4972739;28;20855;-73
2022/01/02 03:04:10;;;;;;;1999.90;999.90;;;13.10;99.90;;;;;;4972478;28;20252;-72
2022/01/02 03:06:36;;;;;;;1999.90;999.90;;;13.10;99.90;;;;;;4972635;28;20194;-72
2022/01/02 03:09:07;;;;;;;1999.90;999.90;;;13.00;99.90;;;;;;4972625;28;20548;-72
2022/01/02 03:11:33;;;;;;;1999.90;999.90;;;12.80;99.90;;;;;;4972566;28;20289;-72
2022/01/02 03:13:59;;;;;;;1999.90;999.90;;;12.70;99.90;;;;;;4972036;28;20517;-73
2022/01/02 03:16:24;;;;;;;1999.90;999.90;;;12.60;99.90;;;;;;4972405;28;20179;-73
2022/01/02 03:18:50;;;;;;;1999.90;999.90;;;12.60;99.90;;;;;;4972508;28;20178;-72
2022/01/02 03:21:16;;;;;;;1999.90;999.90;;;12.60;99.90;;;;;;4972447;28;20168;-72
2022/01/02 03:23:42;;;;;;;1999.90;999.90;;;12.50;99.90;;;;;;4972415;28;20229;-72
2022/01/02 03:26:08;;;;;;;1999.90;999.90;;;12.50;99.90;;;;;;4972221;28;20922;-72
2022/01/02 03:28:34;;;;;;;1999.90;999.90;;;12.40;99.90;;;;;;4972367;28;20477;-72
2022/01/02 03:31:00;;;;;;;1999.90;999.90;;;12.40;99.90;;;;;;4972258;28;20460;-72
2022/01/02 03:33:26;;;;;;;1999.90;999.90;;;12.30;99.90;;;;;;4972276;28;20422;-72
2022/01/02 03:35:51;;;;;;;1999.90;999.90;;;12.40;99.90;;;;;;4971985;28;20768;-73
2022/01/02 03:38:17;;;;;;;1999.90;999.90;;;12.40;99.90;;;;;;4972225;28;20213;-73
2022/01/02 03:40:43;;;;;;;1999.90;999.90;;;12.40;99.90;;;;;;4972164;28;20181;-72
2022/01/02 03:43:09;;;;;;;1999.90;999.90;;;12.40;99.90;;;;;;4971948;28;20409;-72
2022/01/02 03:45:34;;;;;;;1999.90;999.90;;;12.40;99.90;;;;;;4971878;28;20185;-72
2022/01/02 03:48:00;;;;;;;1999.90;999.90;;;12.30;99.90;;;;;;4972114;28;20175;-72
2022/01/02 03:50:27;;;;;;;1999.90;999.90;;;12.30;99.90;;;;;;4971921;28;20594;-72
2022/01/02 03:52:53;;;;;;;1999.90;999.90;;;12.20;99.90;;;;;;4971990;28;20173;-72
2022/01/02 03:55:19;;;;;;;1999.90;999.90;;;12.10;99.90;;;;;;4971585;28;20428;-73
2022/01/02 03:57:45;;;;;;;1999.90;999.90;;;12.10;99.90;;;;;;4971937;28;20995;-72
2022/01/02 04:00:14;;;;;;;1999.90;999.90;;;12.10;99.90;;;;;;4971870;28;20405;-72
2022/01/02 04:02:40;;;;;;;1999.90;999.90;;;12.10;99.90;;;;;;4971841;28;20174;-72
2022/01/02 04:05:09;;;;;;;1999.90;999.90;;;12.10;99.90;;;;;;4971471;28;20943;-72
2022/01/02 04:07:35;;;;;;;1999.90;999.90;;;12.00;99.90;;;;;;4971774;28;20414;-72
2022/01/02 04:10:05;;;;;;;1999.90;999.90;;;12.00;99.90;;;;;;4971755;28;20408;-72
2022/01/02 04:12:32;;;;;;;1999.90;999.90;;;12.00;99.90;;;;;;4971621;28;20463;-72
2022/01/02 04:14:58;;;;;;;1999.90;999.90;;;12.00;99.90;;;;;;4971291;28;20433;-72
2022/01/02 04:17:23;;;;;;;1999.90;999.90;;;12.10;99.90;;;;;;4971583;28;20409;-72
2022/01/02 04:19:50;;;;;;;1999.90;999.90;;;12.00;99.90;;;;;;4971568;28;20166;-73
2022/01/02 04:22:17;;;;;;;1999.90;999.90;;;12.00;99.90;;;;;;4971618;28;20439;-72
2022/01/02 04:24:42;;;;;;;1999.90;999.90;;;12.00;99.90;;;;;;4970411;28;20890;-72
2022/01/02 04:27:08;;;;;;;1999.90;999.90;;;12.00;99.90;;;;;;4971431;28;20551;-73
2022/01/02 04:29:34;;;;;;;1999.90;999.90;;;11.90;99.90;;;;;;4971404;28;20250;-72
2022/01/02 04:32:00;;;;;;;1999.90;999.90;;;11.90;99.90;;;;;;4971303;28;20458;-72
2022/01/02 04:34:25;;;;;;;1999.90;999.90;;;11.90;99.90;;;;;;4970940;28;20797;-72
2022/01/02 04:36:51;;;;;;;1999.90;999.90;;;11.90;99.90;;;;;;4971334;28;20204;-72
2022/01/02 04:39:17;;;;;;;1999.90;999.90;;;11.90;99.90;;;;;;4971307;28;20539;-72
2022/01/02 04:41:42;;;;;;;1999.90;999.90;;;11.90;99.90;;;;;;4971162;28;20640;-72
2022/01/02 04:44:08;;;;;;;1999.90;999.90;;;11.90;99.90;;;;;;4970779;28;20476;-72
2022/01/02 04:46:34;;;;;;;1999.90;999.90;;;11.90;99.90;;;;;;4971150;28;20216;-72
2022/01/02 04:48:59;;;;;;;1999.90;999.90;;;11.90;99.90;;;;;;4971146;28;20184;-73
2022/01/02 04:51:25;;;;;;;1999.90;999.90;;;12.00;99.90;;;;;;4971041;28;20209;-72
2022/01/02 04:53:51;;;;;;;1999.90;999.90;;;11.90;99.90;;;;;;4971528;28;20182;-71
2022/01/02 04:56:17;;;;;;;1999.90;999.90;;;12.00;99.90;;;;;;4970660;28;20634;-72
2022/01/02 04:58:43;;;;;;;1999.90;999.90;;;11.90;99.90;;;;;;4971105;28;20163;-72
2022/01/02 05:01:12;;;;;;;1999.90;999.90;;;11.90;99.90;;;;;;4970954;28;20413;-71
2022/01/02 05:03:46;;;;;;;1999.90;999.90;;;11.90;99.90;;;;;;4970811;28;20498;-71
2022/01/02 05:06:12;;;;;;;1999.90;999.90;;;11.90;99.90;;;;;;4970713;28;20405;-71
2022/01/02 05:08:37;;;;;;;1999.90;999.90;;;11.90;99.90;;;;;;4970833;28;20410;-71
2022/01/02 05:11:04;;;;;;;1999.90;999.90;;;11.80;99.90;;;;;;4970698;28;20683;-71
2022/01/02 05:13:29;;;;;;;1999.90;999.90;;;11.80;99.90;;;;;;4970784;28;20238;-71
2022/01/02 05:15:55;;;;;;;1999.90;999.90;;;11.70;99.90;;;;;;4970400;28;20816;-71
2022/01/02 05:18:21;;;;;;;1999.90;999.90;;;11.70;99.90;;;;;;4970755;28;20163;-73
2022/01/02 05:20:46;;;;;;;1999.90;999.90;;;11.80;99.90;;;;;;4970667;28;20219;-71
2022/01/02 05:23:19;;;;;;;1999.90;999.90;;;11.80;99.90;;;;;;4970627;28;20177;-71
2022/01/02 05:25:45;;;;;;;1999.90;999.90;;;11.90;99.90;;;;;;4970320;28;20406;-72
2022/01/02 05:28:11;;;;;;;1999.90;999.90;;;11.90;99.90;;;;;;4970630;28;20402;-72
2022/01/02 05:30:40;;;;;;;1999.90;999.90;;;12.00;99.90;;;;;;4970469;28;20480;-72
2022/01/02 05:33:07;;;;;;;1999.90;999.90;;;12.00;99.90;;;;;;4970522;28;20674;-72
2022/01/02 05:35:33;;;;;;;1999.90;999.90;;;12.10;99.90;;;;;;4970194;28;20421;-72
2022/01/02 05:37:59;;;;;;;1999.90;999.90;;;12.10;99.90;;;;;;4970613;28;20417;-72
2022/01/02 05:40:30;;;;;;;1999.90;999.90;;;12.00;99.90;;;;;;4970405;28;20178;-72
2022/01/02 05:42:56;;;;;;;1999.90;999.90;;;11.90;99.90;;;;;;4970311;28;20405;-72
2022/01/02 05:45:21;;;;;;;1999.90;999.90;;;11.90;99.90;;;;;;4970083;28;20420;-72
2022/01/02 05:47:47;;;;;;;1999.90;999.90;;;11.90;99.90;;;;;;4970377;28;20181;-72
2022/01/02 05:50:12;;;;;;;1999.90;999.90;;;11.90;99.90;;;;;;4969301;28;20188;-72
2022/01/02 05:52:38;;;;;;;1999.90;999.90;;;11.90;99.90;;;;;;4970197;28;20213;-72
2022/01/02 05:55:04;;;;;;;1999.90;999.90;;;11.90;99.90;;;;;;4969904;28;20197;-73
2022/01/02 05:57:31;;;;;;;1999.90;999.90;;;11.90;99.90;;;;;;4970238;28;20174;-73
2022/01/02 05:59:57;;;;;;;1999.90;999.90;;;11.80;99.90;;;;;;4970193;28;20405;-72
2022/01/02 06:02:23;;;;;;;1999.90;999.90;;;11.70;99.90;;;;;;4970181;28;20794;-72
2022/01/02 06:04:49;;;;;;;1999.90;999.90;;;11.80;99.90;;;;;;4969843;28;20695;-72
2022/01/02 06:07:15;;;;;;;1999.90;999.90;;;11.80;99.90;;;;;;4970105;28;20473;-73
2022/01/02 06:09:41;;;;;;;1999.90;999.90;;;11.80;99.90;;;;;;4970078;28;20177;-72
2022/01/02 06:12:07;;;;;;;1999.90;999.90;;;11.80;99.90;;;;;;4969962;28;20502;-73
2022/01/02 06:14:32;;;;;;;1999.90;999.90;;;11.80;99.90;;;;;;4969752;28;20187;-72
2022/01/02 06:16:58;;;;;;;1999.90;999.90;;;11.70;99.90;;;;;;4970126;28;20816;-73
2022/01/02 06:19:24;;;;;;;1999.90;999.90;;;11.80;99.90;;;;;;4970052;28;20174;-72
2022/01/02 06:21:49;;;;;;;1999.90;999.90;;;11.80;99.90;;;;;;4969981;28;20206;-72
2022/01/02 06:24:15;;;;;;;1999.90;999.90;;;11.90;99.90;;;;;;4969522;28;20566;-72
2022/01/02 06:26:40;;;;;;;1999.90;999.90;;;11.90;99.90;;;;;;4969846;28;20186;-72
2022/01/02 06:29:06;;;;;;;1999.90;999.90;;;11.90;99.90;;;;;;4970017;28;20175;-72
2022/01/02 06:31:31;;;;;;;1999.90;999.90;;;11.90;99.90;;;;;;4969772;28;20205;-72
2022/01/02 06:33:57;;;;;;;1999.90;999.90;;;11.80;99.90;;;;;;4969620;28;20556;-72
2022/01/02 06:36:23;;;;;;;1999.90;999.90;;;11.70;99.90;;;;;;4969546;28;20174;-72
2022/01/02 06:38:49;;;;;;;1999.90;999.90;;;11.70;99.90;;;;;;4969668;28;20243;-72
2022/01/02 06:41:14;;;;;;;1999.90;999.90;;;11.70;99.90;;;;;;4969681;28;20825;-72
2022/01/02 06:43:40;;;;;;;1999.90;999.90;;;11.70;99.90;;;;;;4969436;28;20468;-72
2022/01/02 06:46:06;;;;;;;1999.90;999.90;;;11.80;99.90;;;;;;4969410;28;20229;-72
2022/01/02 06:48:32;;;;;;;1999.90;999.90;;;11.80;99.90;;;;;;4971831;28;20416;-72
2022/01/02 06:50:58;;;;;;;1999.90;999.90;;;11.70;99.90;;;;;;4972882;28;20448;-73
2022/01/02 06:53:24;;;;;;;1999.90;999.90;;;11.60;99.90;;;;;;4972714;28;20200;-73
2022/01/02 06:55:49;;;;;;;1999.90;999.90;;;11.60;99.90;;;;;;4972511;28;20223;-73
2022/01/02 06:58:15;;;;;;;1999.90;999.90;;;11.70;99.90;;;;;;4972851;28;20205;-73
2022/01/02 07:00:41;;;;;;;1999.90;999.90;;;11.70;99.90;;;;;;4972778;28;20181;-73
2022/01/02 07:03:07;;;;;;;1999.90;999.90;;;11.80;99.90;;;;;;4972671;28;20300;-73
2022/01/02 07:05:33;;;;;;;1999.90;999.90;;;11.70;99.90;;;;;;4972492;28;20515;-73
2022/01/02 07:07:58;;;;;;;1999.90;999.90;;;11.70;99.90;;;;;;4972707;28;20175;-73
2022/01/02 07:10:24;;;;;;;1999.90;999.90;;;11.70;99.90;;;;;;4972477;28;20414;-73
2022/01/02 07:12:50;;;;;;;1999.90;999.90;;;11.70;99.90;;;;;;4972597;28;20177;-73
2022/01/02 07:15:15;;;;;;;1999.90;999.90;;;11.70;99.90;;;;;;4972248;28;20765;-73
2022/01/02 07:17:41;;;;;;;1999.90;999.90;;;11.70;99.90;;;;;;4972562;28;20170;-73
2022/01/02 07:20:08;;;;;;;1999.90;999.90;;;11.80;99.90;;;;;;4972659;28;20170;-73
2022/01/02 07:22:34;;;;;;;1999.90;999.90;;;11.70;99.90;;;;;;4972269;28;20752;-73
2022/01/02 07:25:00;;;;;;;1999.90;999.90;;;11.70;99.90;;;;;;4971969;28;20433;-73
2022/01/02 07:27:26;;;;;;;1999.90;999.90;;;11.60;99.90;;;;;;4972452;28;20180;-73
2022/01/02 07:29:54;;;;;;;1999.90;999.90;;;11.70;99.90;;;;;;4972343;28;20865;-73
2022/01/02 07:32:20;;;;;;;1999.90;999.90;;;11.60;99.90;;;;;;4972131;28;20663;-73
2022/01/02 07:34:46;;;;;;;1999.90;999.90;;;11.70;99.90;;;;;;4971920;28;20482;-73
2022/01/02 07:37:12;;;;;;;1999.90;999.90;;;11.60;99.90;;;;;;4972260;28;20202;-73
2022/01/02 07:39:37;;;;;;;1999.90;999.90;;;11.60;99.90;;;;;;4972212;28;20630;-73
2022/01/02 07:42:04;;;;;;;1999.90;999.90;;;11.60;99.90;;;;;;4972138;28;20182;-73
2022/01/02 07:44:29;;;;;;;1999.90;999.90;;;11.50;99.90;;;;;;4971689;28;20612;-73
2022/01/02 07:46:55;;;;;;;1999.90;999.90;;;11.50;99.90;;;;;;4972135;28;20418;-74
2022/01/02 07:49:21;;;;;;;1999.90;999.90;;;11.50;99.90;;;;;;4972045;28;20183;-73
2022/01/02 07:51:47;;;;;;;1999.90;999.90;;;11.50;99.90;;;;;;4971913;28;20288;-73
2022/01/02 07:54:13;;;;;;;1999.90;999.90;;;11.50;99.90;;;;;;4971683;28;20426;-72
2022/01/02 07:56:39;;;;;;;1999.90;999.90;;;11.50;99.90;;;;;;4971922;28;20172;-73
2022/01/02 07:59:05;;;;;;;1999.90;999.90;;;11.50;99.90;;;;;;4970776;28;20761;-72
2022/01/02 08:01:31;;;;;;;1999.90;999.90;;;11.50;99.90;;;;;;4971852;28;20415;-72
2022/01/02 08:03:57;;;;;;;1999.90;999.90;;;11.50;99.90;;;;;;4971705;28;20208;-72
2022/01/02 08:06:22;;;;;;;1999.90;999.90;;;11.50;99.90;;;;;;4971582;28;20261;-72
2022/01/02 08:08:48;;;;;;;1999.90;999.90;;;11.50;99.90;;;;;;4971669;28;20206;-72
2022/01/02 08:11:16;;;;;;;1999.90;999.90;;;11.60;99.90;;;;;;4971630;28;20209;-72
2022/01/02 08:13:42;;;;;;;1999.90;999.90;;;11.70;99.90;;;;;;4971609;28;20186;-72
2022/01/02 08:16:08;;;;;;;1999.90;999.90;;;11.70;99.90;;;;;;4971374;28;20473;-72
2022/01/02 08:18:34;;;;;;;1999.90;999.90;;;11.70;99.90;;;;;;4971623;28;20417;-72
2022/01/02 08:20:59;;;;;;;1999.90;999.90;;;11.90;99.90;;;;;;4971466;28;20655;-72
2022/01/02 08:23:25;;;;;;;1999.90;999.90;;;12.00;99.90;;;;;;4971488;28;20223;-72
2022/01/02 08:25:51;;;;;;;1999.90;999.90;;;12.10;99.90;;;;;;4971224;28;20216;-72
2022/01/02 08:28:17;;;;;;;1999.90;999.90;;;12.30;99.90;;;;;;4971509;28;20181;-72
2022/01/02 08:30:43;;;;;;;1999.90;999.90;;;12.30;99.90;;;;;;4971399;28;20259;-72
2022/01/02 08:33:10;;;;;;;1999.90;999.90;;;12.40;99.90;;;;;;4971378;28;20421;-72
2022/01/02 08:35:37;;;;;;;1999.90;999.90;;;12.50;99.90;;;;;;4971094;28;20878;-72
2022/01/02 08:38:03;;;;;;;1999.90;999.90;;;12.60;99.90;;;;;;4971248;28;20432;-72
2022/01/02 08:40:28;;;;;;;1999.90;999.90;;;12.60;99.90;;;;;;4971289;28;20405;-72
2022/01/02 08:42:54;;;;;;;1999.90;999.90;;;12.60;99.90;;;;;;4971147;28;20717;-72
2022/01/02 08:45:20;;;;;;;1999.90;999.90;;;12.60;99.90;;;;;;4970905;28;20243;-72
2022/01/02 08:47:45;;;;;;;1999.90;999.90;;;12.60;99.90;;;;;;4971164;28;20636;-72
2022/01/02 08:50:11;;;;;;;1999.90;999.90;;;12.60;99.90;;;;;;4971097;28;20170;-72
2022/01/02 08:52:37;;;;;;;1999.90;999.90;;;12.60;99.90;;;;;;4970985;28;20275;-72
2022/01/02 08:55:04;;;;;;;1999.90;999.90;;;12.70;99.90;;;;;;4970748;28;20560;-72
2022/01/02 08:57:29;;;;;;;1999.90;999.90;;;12.70;99.90;;;;;;4971140;28;20818;-72
2022/01/02 08:59:55;;;;;;;1999.90;999.90;;;12.70;99.90;;;;;;4970868;28;20446;-72
2022/01/02 09:02:20;;;;;;;1999.90;999.90;;;12.60;99.90;;;;;;4970975;28;20514;-72
2022/01/02 09:04:46;;;;;;;1999.90;999.90;;;12.60;99.90;;;;;;4970545;28;20312;-72
2022/01/02 09:07:12;;;;;;;1999.90;999.90;;;12.60;99.90;;;;;;4970834;28;20535;-72
2022/01/02 09:09:37;;;;;;;1999.90;999.90;;;12.60;99.90;;;;;;4970878;28;20179;-71
2022/01/02 09:12:04;;;;;;;1999.90;999.90;;;12.60;99.90;;;;;;4970374;28;20205;-71
2022/01/02 09:14:30;;;;;;;1999.90;999.90;;;12.70;99.90;;;;;;4970488;28;20659;-71
2022/01/02 09:16:55;;;;;;;1999.90;999.90;;;12.80;99.90;;;;;;4970745;28;20403;-71
2022/01/02 09:19:21;;;;;;;1999.90;999.90;;;13.00;99.90;;;;;;4970669;28;20167;-71
2022/01/02 09:21:46;;;;;;;1999.90;999.90;;;13.20;99.90;;;;;;4970680;28;20174;-71
2022/01/02 09:24:12;;;;;;;1999.90;999.90;;;13.10;99.90;;;;;;4969059;28;20205;-71
2022/01/02 09:26:37;;;;;;;1999.90;999.90;;;13.10;99.90;;;;;;4970652;28;20223;-71
2022/01/02 09:29:04;;;;;;;1999.90;999.90;;;13.10;99.90;;;;;;4970680;28;20178;-72
2022/01/02 09:31:29;;;;;;;1999.90;999.90;;;13.30;99.90;;;;;;4970540;28;20198;-71
2022/01/02 09:33:55;;;;;;;1999.90;999.90;;;13.30;99.90;;;;;;4970260;28;20436;-74
2022/01/02 09:36:21;;;;;;;1999.90;999.90;;;13.40;99.90;;;;;;4970278;28;20227;-71
2022/01/02 09:38:47;;;;;;;1999.90;999.90;;;13.50;99.90;;;;;;4970481;28;20178;-71
2022/01/02 09:41:13;;;;;;;1999.90;999.90;;;13.50;99.90;;;;;;4970375;28;20181;-73
2022/01/02 09:43:39;;;;;;;1999.90;999.90;;;13.60;99.90;;;;;;4970319;28;20462;-71
2022/01/02 09:46:06;;;;;;;1999.90;999.90;;;13.70;99.90;;;;;;4970076;28;20505;-71
2022/01/02 09:48:31;;;;;;;1999.90;999.90;;;13.90;99.90;;;;;;4970367;28;20167;-73
2022/01/02 09:50:57;;;;;;;1999.90;999.90;;;14.10;99.90;;;;;;4970193;28;20465;-71
2022/01/02 09:53:24;;;;;;;1999.90;999.90;;;14.40;99.90;;;;;;4970261;28;20192;-71
2022/01/02 09:55:50;;;;;;;1999.90;999.90;;;14.60;99.90;;;;;;4969982;28;20824;-72
2022/01/02 09:58:15;;;;;;;1999.90;999.90;;;14.80;99.90;;;;;;4970318;28;20406;-72
2022/01/02 10:00:44;;;;;;;1999.90;999.90;;;14.90;99.90;;;;;;4970212;28;20409;-71
2022/01/02 10:03:10;;;;;;;1999.90;999.90;;;15.00;99.90;;;;;;4970049;28;20542;-72
2022/01/02 10:05:59;;;;;;;1999.90;999.90;;;15.00;99.90;;;;;;4969836;28;20406;-71
2022/01/02 10:08:28;;;;;;;1999.90;999.90;;;14.90;99.90;;;;;;4970087;28;20548;-71
2022/01/02 10:11:05;;;;;;;1999.90;999.90;;;14.70;99.90;;;;;;4969976;28;20982;-73
2022/01/02 10:13:42;;;;;;;1999.90;999.90;;;14.60;99.90;;;;;;4965102;28;20447;-71
2022/01/02 10:16:36;;;;;;;1999.90;999.90;;;14.40;99.90;;;;;;4967503;28;20410;-72
2022/01/02 10:19:29;;;;;;;1999.90;999.90;;;14.20;99.90;;;;;;4956326;28;20432;-71
2022/01/02 10:22:03;;;;;;;1999.90;999.90;;;14.00;99.90;;;;;;4944715;28;20443;-72
2022/01/02 10:24:32;;;;;;;1999.90;999.90;;;13.80;99.90;;;;;;4948091;28;20466;-71
2022/01/02 10:27:13;;;;;;;1999.90;999.90;;;13.80;99.90;;;;;;4948083;28;20415;-72
2022/01/02 10:29:44;;;;;;;1999.90;999.90;;;13.70;99.90;;;;;;4946800;28;20446;-73
2022/01/02 10:32:26;;;;;;;1999.90;999.90;;;13.80;99.90;;;;;;4948283;28;20489;-73
2022/01/02 10:35:05;;;;;;;1999.90;999.90;;;14.00;99.90;;;;;;4947556;28;21084;-72
2022/01/02 10:37:31;;;;;;;1999.90;999.90;;;14.20;99.90;;;;;;4948365;28;21270;-72
2022/01/02 10:39:56;;;;;;;1999.90;999.90;;;14.40;99.90;;;;;;4948513;28;20552;-74
2022/01/02 10:42:23;;;;;;;1999.90;999.90;;;14.50;99.90;;;;;;4947876;28;20216;-71
2022/01/02 10:44:49;;;;;;;1999.90;999.90;;;14.50;99.90;;;;;;4947819;28;20207;-73
2022/01/02 10:47:24;;;;;;;1999.90;999.90;;;14.50;99.90;;;;;;4948711;28;20438;-72
2022/01/02 10:50:11;;;;;;;1999.90;999.90;;;14.40;99.90;;;;;;4947843;28;20629;-72
2022/01/02 10:52:38;;;;;;;1999.90;999.90;;;14.50;99.90;;;;;;4948436;28;20494;-75
2022/01/02 10:55:24;;;;;;;1999.90;999.90;;;14.50;99.90;;;;;;4947578;28;20437;-71
2022/01/02 10:57:53;;;;;;;1999.90;999.90;;;14.60;99.90;;;;;;4948334;28;20464;-72
2022/01/02 11:00:26;;;;;;;1999.90;999.90;;;14.60;99.90;;;;;;4947436;28;20411;-72
2022/01/02 11:02:52;;;;;;;1999.90;999.90;;;14.60;99.90;;;;;;4948447;28;20424;-72
2022/01/02 11:05:20;;;;;;;1999.90;999.90;;;14.50;99.90;;;;;;4947495;28;21035;-72
2022/01/02 11:07:51;;;;;;;1999.90;999.90;;;14.60;99.90;;;;;;4948214;28;20968;-72
2022/01/02 11:10:20;;;;;;;1999.90;999.90;;;14.60;99.90;;;;;;4947931;28;20428;-73
2022/01/02 11:12:47;;;;;;;1999.90;999.90;;;14.50;99.90;;;;;;4962210;28;20467;-73
2022/01/02 11:15:16;;;;;;;1999.90;999.90;;;14.50;99.90;;;;;;4966168;28;20481;-72
2022/01/02 11:17:42;;;;;;;1999.90;999.90;;;14.50;99.90;;;;;;4967017;28;20448;-74
2022/01/02 11:20:34;;;;;;;1999.90;999.90;;;14.60;99.90;;;;;;4967625;28;20420;-71
2022/01/02 11:23:21;;;;;;;1999.90;999.90;;;14.90;99.90;;;;;;4967540;28;20517;-71
2022/01/02 11:25:58;;;;;;;1999.90;999.90;;;15.20;99.90;;;;;;4967450;28;20415;-73
2022/01/02 11:28:38;;;;;;;1999.90;999.90;;;15.20;99.90;;;;;;4967823;28;20421;-73
2022/01/02 11:31:06;;;;;;;1999.90;999.90;;;15.40;99.90;;;;;;4967050;28;20629;-74
2022/01/02 11:33:34;;;;;;;1999.90;999.90;;;15.20;99.90;;;;;;4966426;28;20483;-74
2022/01/02 11:36:21;;;;;;;1999.90;999.90;;;15.00;99.90;;;;;;4966540;28;20436;-76
2022/01/02 11:39:05;;;;;;;1999.90;999.90;;;14.80;99.90;;;;;;4967081;28;20413;-74
2022/01/02 11:41:50;;;;;;;1999.90;999.90;;;14.70;99.90;;;;;;4965891;28;21130;-74
2022/01/02 11:44:21;;;;;;;1999.90;999.90;;;14.60;99.90;;;;;;4966702;28;20463;-75
2022/01/02 11:46:57;;;;;;;1999.90;999.90;;;14.60;99.90;;;;;;4967106;28;20992;-74
2022/01/02 11:49:40;;;;;;;1999.90;999.90;;;14.50;99.90;;;;;;4966563;28;20452;-73
2022/01/02 11:52:11;;;;;;;1999.90;999.90;;;14.60;99.90;;;;;;4966508;28;21061;-73
2022/01/02 11:54:47;;;;;;;1999.90;999.90;;;14.50;99.90;;;;;;4966165;28;20429;-76
2022/01/02 11:57:15;;;;;;;1999.90;999.90;;;14.30;99.90;;;;;;4966445;28;20418;-73
2022/01/02 11:59:45;;;;;;;1999.90;999.90;;;14.20;99.90;;;;;;4966289;28;20422;-73
2022/01/02 12:02:26;;;;;;;1999.90;999.90;;;14.10;99.90;;;;;;4965709;28;20914;-73
2022/01/02 12:07:53;;;;;;;1999.90;999.90;;;14.00;99.90;;;;;;4966401;28;20428;-73
2022/01/02 12:10:26;;;;;;;1999.90;999.90;;;14.00;99.90;;;;;;4968149;28;21220;-75